SAEZ/EZE METAR and TAF weather

Enter ICAO airport designator
Station Type Date Time Source
SAEZ METAR 2021/09/24 06:33 UTC NOAA

SAEZ 240633Z 12001KT 0500 R11/0275 BCFG NSC 07/06 Q1022 NOSIG


Station Type Date Time Source
SAEZ Decoded METAR 2021/09/24 06:33 UTC NOAA

Ezeiza Aerodrome, Argentina (SAEZ) 34-49S 058-32W 20M
Sep 24, 2021 - 02:33 AM EDT / 2021.09.24 0633 UTC
Wind: from the ESE (120 degrees) at 1 MPH (1 KT):0
Visibility: less than 1 mile:0
Weather: patches of fog
Temperature: 44 F (7 C)
Dew Point: 42 F (6 C)
Relative Humidity: 93%
Pressure (altimeter): 30.18 in. Hg (1022 hPa)
ob: SAEZ 240633Z 12001KT 0500 R11/0275 BCFG NSC 07/06 Q1022 NOSIG
cycle: 6

Station Type Date Time Source
SAEZ TAF 2021/09/24 06:47 UTC NOAA

TAF SAEZ 240500Z 2406/2506 VRB03KT 5000 MIFG BR NSC TX20/2418Z TN07/2409Z
BECMG 2407/2409 3000 BR SCT010
TEMPO 2408/2411 0800 BCFG SCT007
BECMG 2411/2413 07010KT 9999 NSW SCT020
BECMG 2416/2418 CAVOK

Example: see airport list